sensor_id;sensor_type;location;lat;lon;timestamp;pressure;altitude;pressure_sealevel;temperature;humidity
49835;BME280;35729;52.090;13.162;2023-03-18T00:00:19;100514.34;;;9.24;49.74
49835;BME280;35729;52.090;13.162;2023-03-18T00:02:48;100513.50;;;9.22;50.48
49835;BME280;35729;52.090;13.162;2023-03-18T00:05:17;100522.22;;;9.22;50.45
49835;BME280;35729;52.090;13.162;2023-03-18T00:07:46;100517.00;;;9.21;50.18
49835;BME280;35729;52.090;13.162;2023-03-18T00:10:22;100505.72;;;9.19;49.33
49835;BME280;35729;52.090;13.162;2023-03-18T00:12:53;100506.63;;;9.16;48.85
49835;BME280;35729;52.090;13.162;2023-03-18T00:15:22;100495.31;;;9.16;50.02
49835;BME280;35729;52.090;13.162;2023-03-18T00:17:50;100511.84;;;9.16;50.04
49835;BME280;35729;52.090;13.162;2023-03-18T00:20:19;100504.03;;;9.15;49.96
49835;BME280;35729;52.090;13.162;2023-03-18T00:22:54;100508.41;;;9.14;50.18
49835;BME280;35729;52.090;13.162;2023-03-18T00:25:22;100507.56;;;9.12;50.01
49835;BME280;35729;52.090;13.162;2023-03-18T00:28:06;100502.38;;;9.10;47.98
49835;BME280;35729;52.090;13.162;2023-03-18T00:30:37;100510.28;;;9.09;49.68
49835;BME280;35729;52.090;13.162;2023-03-18T00:33:06;100503.31;;;9.08;48.79
49835;BME280;35729;52.090;13.162;2023-03-18T00:35:35;100502.47;;;9.06;50.10
49835;BME280;35729;52.090;13.162;2023-03-18T00:38:04;100504.25;;;9.04;50.21
49835;BME280;35729;52.090;13.162;2023-03-18T00:40:35;100496.41;;;9.04;50.01
49835;BME280;35729;52.090;13.162;2023-03-18T00:43:21;100496.41;;;9.02;49.94
49835;BME280;35729;52.090;13.162;2023-03-18T00:45:54;100495.59;;;9.00;50.12
49835;BME280;35729;52.090;13.162;2023-03-18T00:48:24;100494.78;;;8.96;49.95
49835;BME280;35729;52.090;13.162;2023-03-18T00:50:54;100495.66;;;8.97;50.08
49835;BME280;35729;52.090;13.162;2023-03-18T00:53:22;100496.56;;;8.96;50.00
49835;BME280;35729;52.090;13.162;2023-03-18T00:55:51;100497.47;;;8.93;49.21
49835;BME280;35729;52.090;13.162;2023-03-18T00:58:22;100494.88;;;8.92;49.40
49835;BME280;35729;52.090;13.162;2023-03-18T01:00:51;100496.63;;;8.91;49.99
49835;BME280;35729;52.090;13.162;2023-03-18T01:03:19;100487.09;;;8.89;50.12
49835;BME280;35729;52.090;13.162;2023-03-18T01:05:50;100496.69;;;8.88;50.10
49835;BME280;35729;52.090;13.162;2023-03-18T01:08:18;100493.25;;;8.86;49.94
49835;BME280;35729;52.090;13.162;2023-03-18T01:10:47;100502.81;;;8.87;50.07
49835;BME280;35729;52.090;13.162;2023-03-18T01:13:16;100493.28;;;8.85;50.20
49835;BME280;35729;52.090;13.162;2023-03-18T01:15:47;100481.94;;;8.84;49.50
49835;BME280;35729;52.090;13.162;2023-03-18T01:18:16;100486.28;;;8.85;50.20
49835;BME280;35729;52.090;13.162;2023-03-18T01:20:45;100492.41;;;8.84;50.57
49835;BME280;35729;52.090;13.162;2023-03-18T01:23:14;100496.81;;;8.82;50.55
49835;BME280;35729;52.090;13.162;2023-03-18T01:25:42;100485.44;;;8.83;50.44
49835;BME280;35729;52.090;13.162;2023-03-18T01:28:11;100486.34;;;8.82;50.22
49835;BME280;35729;52.090;13.162;2023-03-18T01:30:40;100493.34;;;8.80;50.54
49835;BME280;35729;52.090;13.162;2023-03-18T01:33:11;100494.22;;;8.80;49.66
49835;BME280;35729;52.090;13.162;2023-03-18T01:35:40;100489.00;;;8.79;50.38
49835;BME280;35729;52.090;13.162;2023-03-18T01:38:11;100487.25;;;8.79;50.07
49835;BME280;35729;52.090;13.162;2023-03-18T01:40:39;100488.16;;;8.77;50.07
49835;BME280;35729;52.090;13.162;2023-03-18T01:43:14;100494.31;;;8.76;49.24
49835;BME280;35729;52.090;13.162;2023-03-18T01:45:48;100494.31;;;8.74;49.85
49835;BME280;35729;52.090;13.162;2023-03-18T01:48:20;100494.34;;;8.73;49.14
49835;BME280;35729;52.090;13.162;2023-03-18T01:50:51;100496.97;;;8.73;49.94
49835;BME280;35729;52.090;13.162;2023-03-18T01:53:26;100493.53;;;8.71;50.28
49835;BME280;35729;52.090;13.162;2023-03-18T01:55:55;100506.63;;;8.69;50.06
49835;BME280;35729;52.090;13.162;2023-03-18T01:58:28;100501.41;;;8.68;49.97
49835;BME280;35729;52.090;13.162;2023-03-18T02:01:02;100501.47;;;8.66;49.69
49835;BME280;35729;52.090;13.162;2023-03-18T02:03:34;100512.84;;;8.63;49.73
49835;BME280;35729;52.090;13.162;2023-03-18T02:06:04;100506.72;;;8.63;50.21
49835;BME280;35729;52.090;13.162;2023-03-18T02:08:32;100498.03;;;8.62;50.00
49835;BME280;35729;52.090;13.162;2023-03-18T02:11:02;100504.16;;;8.61;50.30
49835;BME280;35729;52.090;13.162;2023-03-18T02:13:30;100498.06;;;8.61;50.09
49835;BME280;35729;52.090;13.162;2023-03-18T02:16:02;100498.09;;;8.59;49.42
49835;BME280;35729;52.090;13.162;2023-03-18T02:18:37;100508.56;;;8.59;49.69
49835;BME280;35729;52.090;13.162;2023-03-18T02:21:18;100505.94;;;8.58;49.21
49835;BME280;35729;52.090;13.162;2023-03-18T02:23:52;100499.09;;;8.52;49.74
49835;BME280;35729;52.090;13.162;2023-03-18T02:26:30;100501.66;;;8.54;49.01
49835;BME280;35729;52.090;13.162;2023-03-18T02:29:06;100489.47;;;8.53;49.92
49835;BME280;35729;52.090;13.162;2023-03-18T02:31:35;100483.41;;;8.52;49.80
49835;BME280;35729;52.090;13.162;2023-03-18T02:34:05;100487.81;;;8.48;49.41
49835;BME280;35729;52.090;13.162;2023-03-18T02:36:34;100481.72;;;8.48;50.11
49835;BME280;35729;52.090;13.162;2023-03-18T02:39:03;100477.38;;;8.47;49.99
49835;BME280;35729;52.090;13.162;2023-03-18T02:41:34;100485.22;;;8.47;50.13
49835;BME280;35729;52.090;13.162;2023-03-18T02:44:05;100490.47;;;8.45;49.58
49835;BME280;35729;52.090;13.162;2023-03-18T02:46:41;100495.69;;;8.45;48.97
49835;BME280;35729;52.090;13.162;2023-03-18T02:49:16;100495.69;;;8.44;49.82
49835;BME280;35729;52.090;13.162;2023-03-18T02:51:46;100501.78;;;8.46;50.20
49835;BME280;35729;52.090;13.162;2023-03-18T02:54:18;100502.66;;;8.48;49.61
49835;BME280;35729;52.090;13.162;2023-03-18T02:56:47;100495.66;;;8.48;50.19
49835;BME280;35729;52.090;13.162;2023-03-18T02:59:19;100500.91;;;8.47;49.68
49835;BME280;35729;52.090;13.162;2023-03-18T03:01:50;100499.16;;;8.47;50.35
49835;BME280;35729;52.090;13.162;2023-03-18T03:04:21;100499.19;;;8.46;50.35
49835;BME280;35729;52.090;13.162;2023-03-18T03:06:51;100497.41;;;8.45;50.07
49835;BME280;35729;52.090;13.162;2023-03-18T03:09:20;100505.25;;;8.45;50.38
49835;BME280;35729;52.090;13.162;2023-03-18T03:11:49;100506.16;;;8.44;49.97
49835;BME280;35729;52.090;13.162;2023-03-18T03:14:20;100500.09;;;8.42;49.90
49835;BME280;35729;52.090;13.162;2023-03-18T03:16:48;100501.84;;;8.41;50.04
49835;BME280;35729;52.090;13.162;2023-03-18T03:19:17;100500.97;;;8.41;50.23
49835;BME280;35729;52.090;13.162;2023-03-18T03:21:45;100497.53;;;8.39;50.34
49835;BME280;35729;52.090;13.162;2023-03-18T03:24:14;100502.75;;;8.39;50.36
49835;BME280;35729;52.090;13.162;2023-03-18T03:26:42;100505.41;;;8.37;50.34
49835;BME280;35729;52.090;13.162;2023-03-18T03:29:11;100501.94;;;8.37;50.41
49835;BME280;35729;52.090;13.162;2023-03-18T03:31:42;100507.16;;;8.35;50.16
49835;BME280;35729;52.090;13.162;2023-03-18T03:34:10;100513.31;;;8.34;50.60
49835;BME280;35729;52.090;13.162;2023-03-18T03:36:39;100515.06;;;8.32;50.30
49835;BME280;35729;52.090;13.162;2023-03-18T03:39:07;100509.88;;;8.30;50.31
49835;BME280;35729;52.090;13.162;2023-03-18T03:41:36;100518.63;;;8.28;50.78
49835;BME280;35729;52.090;13.162;2023-03-18T03:44:05;100513.44;;;8.25;50.73
49835;BME280;35729;52.090;13.162;2023-03-18T03:46:33;100510.00;;;8.23;50.80
49835;BME280;35729;52.090;13.162;2023-03-18T03:49:04;100513.59;;;8.15;50.84
49835;BME280;35729;52.090;13.162;2023-03-18T03:51:33;100514.44;;;8.18;50.99
49835;BME280;35729;52.090;13.162;2023-03-18T03:54:02;100518.84;;;8.14;51.17
49835;BME280;35729;52.090;13.162;2023-03-18T03:56:30;100527.59;;;8.11;51.29
49835;BME280;35729;52.090;13.162;2023-03-18T03:58:59;100532.03;;;8.06;51.00
49835;BME280;35729;52.090;13.162;2023-03-18T04:01:29;100525.97;;;8.03;51.37
49835;BME280;35729;52.090;13.162;2023-03-18T04:03:59;100530.38;;;7.99;51.43
49835;BME280;35729;52.090;13.162;2023-03-18T04:06:31;100526.06;;;7.96;50.58
49835;BME280;35729;52.090;13.162;2023-03-18T04:08:59;100525.25;;;7.93;51.77
49835;BME280;35729;52.090;13.162;2023-03-18T04:11:28;100533.13;;;7.88;51.44
49835;BME280;35729;52.090;13.162;2023-03-18T04:13:56;100533.19;;;7.85;51.66
49835;BME280;35729;52.090;13.162;2023-03-18T04:16:25;100535.81;;;7.82;51.78
49835;BME280;35729;52.090;13.162;2023-03-18T04:18:54;100527.16;;;7.80;51.70
49835;BME280;35729;52.090;13.162;2023-03-18T04:21:22;100536.75;;;7.78;51.99
49835;BME280;35729;52.090;13.162;2023-03-18T04:23:54;100542.03;;;7.75;51.73
49835;BME280;35729;52.090;13.162;2023-03-18T04:26:22;100543.78;;;7.73;51.87
49835;BME280;35729;52.090;13.162;2023-03-18T04:28:52;100545.53;;;7.71;52.08
49835;BME280;35729;52.090;13.162;2023-03-18T04:31:21;100539.50;;;7.67;52.50
49835;BME280;35729;52.090;13.162;2023-03-18T04:33:49;100549.13;;;7.65;52.04
49835;BME280;35729;52.090;13.162;2023-03-18T04:36:18;100546.56;;;7.60;52.60
49835;BME280;35729;52.090;13.162;2023-03-18T04:38:46;100556.13;;;7.61;52.63
49835;BME280;35729;52.090;13.162;2023-03-18T04:41:17;100547.47;;;7.58;52.74
49835;BME280;35729;52.090;13.162;2023-03-18T04:43:46;100548.34;;;7.57;52.71
49835;BME280;35729;52.090;13.162;2023-03-18T04:46:15;100550.13;;;7.53;52.69
49835;BME280;35729;52.090;13.162;2023-03-18T04:48:43;100548.41;;;7.50;53.06
49835;BME280;35729;52.090;13.162;2023-03-18T04:51:11;100557.13;;;7.48;53.25
49835;BME280;35729;52.090;13.162;2023-03-18T04:53:40;100547.63;;;7.44;53.22
49835;BME280;35729;52.090;13.162;2023-03-18T04:56:09;100549.41;;;7.40;53.42
49835;BME280;35729;52.090;13.162;2023-03-18T04:58:40;100552.91;;;7.38;53.20
49835;BME280;35729;52.090;13.162;2023-03-18T05:01:09;100541.69;;;7.31;53.57
49835;BME280;35729;52.090;13.162;2023-03-18T05:03:37;100550.41;;;7.28;53.65
49835;BME280;35729;52.090;13.162;2023-03-18T05:06:07;100557.41;;;7.26;53.43
49835;BME280;35729;52.090;13.162;2023-03-18T05:08:36;100556.56;;;7.24;53.47
49835;BME280;35729;52.090;13.162;2023-03-18T05:11:04;100556.59;;;7.20;53.87
49835;BME280;35729;52.090;13.162;2023-03-18T05:13:33;100552.28;;;7.17;54.02
49835;BME280;35729;52.090;13.162;2023-03-18T05:16:05;100549.69;;;7.15;54.31
49835;BME280;35729;52.090;13.162;2023-03-18T05:18:34;100555.81;;;7.13;54.45
49835;BME280;35729;52.090;13.162;2023-03-18T05:21:03;100558.44;;;7.10;54.47
49835;BME280;35729;52.090;13.162;2023-03-18T05:23:32;100556.72;;;7.07;54.61
49835;BME280;35729;52.090;13.162;2023-03-18T05:26:01;100556.75;;;7.06;54.82
49835;BME280;35729;52.090;13.162;2023-03-18T05:28:30;100562.00;;;7.04;54.79
49835;BME280;35729;52.090;13.162;2023-03-18T05:30:58;100558.53;;;7.02;55.00
49835;BME280;35729;52.090;13.162;2023-03-18T05:33:30;100561.16;;;7.00;54.93
49835;BME280;35729;52.090;13.162;2023-03-18T05:35:59;100559.44;;;6.98;55.24
49835;BME280;35729;52.090;13.162;2023-03-18T05:38:27;100561.19;;;6.96;55.35
49835;BME280;35729;52.090;13.162;2023-03-18T05:40:56;100550.78;;;6.94;55.34
49835;BME280;35729;52.090;13.162;2023-03-18T05:43:25;100562.09;;;6.93;55.51
49835;BME280;35729;52.090;13.162;2023-03-18T05:45:53;100559.50;;;6.92;55.67
49835;BME280;35729;52.090;13.162;2023-03-18T05:48:22;100564.72;;;6.92;55.72
49835;BME280;35729;52.090;13.162;2023-03-18T05:50:54;100570.78;;;6.92;55.75
49835;BME280;35729;52.090;13.162;2023-03-18T05:53:23;100568.16;;;6.92;55.71
49835;BME280;35729;52.090;13.162;2023-03-18T05:55:51;100569.03;;;6.91;55.77
49835;BME280;35729;52.090;13.162;2023-03-18T05:58:20;100574.25;;;6.91;55.95
49835;BME280;35729;52.090;13.162;2023-03-18T06:00:49;100574.25;;;6.91;56.08
49835;BME280;35729;52.090;13.162;2023-03-18T06:03:18;100577.75;;;6.92;55.98
49835;BME280;35729;52.090;13.162;2023-03-18T06:05:46;100579.50;;;6.93;55.84
49835;BME280;35729;52.090;13.162;2023-03-18T06:08:18;100577.72;;;6.93;55.74
49835;BME280;35729;52.090;13.162;2023-03-18T06:10:47;100582.06;;;6.94;55.91
49835;BME280;35729;52.090;13.162;2023-03-18T06:13:22;100575.13;;;6.96;55.99
49835;BME280;35729;52.090;13.162;2023-03-18T06:15:58;100570.75;;;6.97;55.99
49835;BME280;35729;52.090;13.162;2023-03-18T06:18:28;100571.59;;;6.99;56.15
49835;BME280;35729;52.090;13.162;2023-03-18T06:20:56;100567.25;;;6.99;56.19
49835;BME280;35729;52.090;13.162;2023-03-18T06:23:27;100571.59;;;7.00;55.95
49835;BME280;35729;52.090;13.162;2023-03-18T06:25:56;100580.25;;;7.04;56.45
49835;BME280;35729;52.090;13.162;2023-03-18T06:28:25;100583.69;;;7.06;56.28
49835;BME280;35729;52.090;13.162;2023-03-18T06:30:54;100580.22;;;7.06;56.44
49835;BME280;35729;52.090;13.162;2023-03-18T06:33:23;100587.19;;;7.07;56.42
49835;BME280;35729;52.090;13.162;2023-03-18T06:35:52;100584.53;;;7.10;56.61
49835;BME280;35729;52.090;13.162;2023-03-18T06:38:22;100588.88;;;7.11;56.38
49835;BME280;35729;52.090;13.162;2023-03-18T06:40:54;100583.63;;;7.12;56.07
49835;BME280;35729;52.090;13.162;2023-03-18T06:43:22;100593.16;;;7.15;56.49
49835;BME280;35729;52.090;13.162;2023-03-18T06:45:51;100587.94;;;7.15;56.54
49835;BME280;35729;52.090;13.162;2023-03-18T06:48:20;100592.28;;;7.19;56.68
49835;BME280;35729;52.090;13.162;2023-03-18T06:50:49;100595.72;;;7.21;56.58
49835;BME280;35729;52.090;13.162;2023-03-18T06:53:18;100597.44;;;7.24;56.78
49835;BME280;35729;52.090;13.162;2023-03-18T06:55:47;100601.78;;;7.25;56.88
49835;BME280;35729;52.090;13.162;2023-03-18T06:58:19;100607.84;;;7.28;56.76
49835;BME280;35729;52.090;13.162;2023-03-18T07:00:47;100606.09;;;7.30;56.66
49835;BME280;35729;52.090;13.162;2023-03-18T07:03:15;100612.13;;;7.32;56.65
49835;BME280;35729;52.090;13.162;2023-03-18T07:05:44;100610.38;;;7.34;56.85
49835;BME280;35729;52.090;13.162;2023-03-18T07:08:13;100615.56;;;7.36;57.15
49835;BME280;35729;52.090;13.162;2023-03-18T07:10:42;100617.31;;;7.37;56.95
49835;BME280;35729;52.090;13.162;2023-03-18T07:13:10;100608.59;;;7.37;57.13
49835;BME280;35729;52.090;13.162;2023-03-18T07:15:42;100616.41;;;7.40;56.86
49835;BME280;35729;52.090;13.162;2023-03-18T07:18:11;100623.38;;;7.41;57.10
49835;BME280;35729;52.090;13.162;2023-03-18T07:20:39;100627.72;;;7.40;57.29
49835;BME280;35729;52.090;13.162;2023-03-18T07:23:07;100632.03;;;7.44;57.33
49835;BME280;35729;52.090;13.162;2023-03-18T07:25:37;100636.38;;;7.44;57.22
49835;BME280;35729;52.090;13.162;2023-03-18T07:28:06;100635.47;;;7.46;57.58
49835;BME280;35729;52.090;13.162;2023-03-18T07:30:35;100645.91;;;7.48;57.86
49835;BME280;35729;52.090;13.162;2023-03-18T07:33:06;100649.34;;;7.52;57.53
49835;BME280;35729;52.090;13.162;2023-03-18T07:35:35;100647.63;;;7.52;58.03
49835;BME280;35729;52.090;13.162;2023-03-18T07:38:05;100652.78;;;7.58;58.01
49835;BME280;35729;52.090;13.162;2023-03-18T07:40:34;100651.84;;;7.62;57.96
49835;BME280;35729;52.090;13.162;2023-03-18T07:43:02;100664.00;;;7.66;57.94
49835;BME280;35729;52.090;13.162;2023-03-18T07:45:31;100657.84;;;7.71;58.29
49835;BME280;35729;52.090;13.162;2023-03-18T07:47:59;100656.94;;;7.75;58.40
49835;BME280;35729;52.090;13.162;2023-03-18T07:50:31;100651.66;;;7.79;58.38
49835;BME280;35729;52.090;13.162;2023-03-18T07:52:59;100662.06;;;7.84;58.43
49835;BME280;35729;52.090;13.162;2023-03-18T07:55:29;100650.69;;;7.88;58.41
49835;BME280;35729;52.090;13.162;2023-03-18T07:57:57;100656.72;;;7.92;58.51
49835;BME280;35729;52.090;13.162;2023-03-18T08:00:26;100667.13;;;7.96;58.45
49835;BME280;35729;52.090;13.162;2023-03-18T08:02:55;100666.19;;;8.02;58.47
49835;BME280;35729;52.090;13.162;2023-03-18T08:05:23;100661.78;;;8.06;58.27
49835;BME280;35729;52.090;13.162;2023-03-18T08:07:54;100661.69;;;8.13;58.20
49835;BME280;35729;52.090;13.162;2023-03-18T08:10:23;100654.66;;;8.20;58.57
49835;BME280;35729;52.090;13.162;2023-03-18T08:12:53;100667.59;;;8.28;58.40
49835;BME280;35729;52.090;13.162;2023-03-18T08:15:22;100670.13;;;8.36;58.22
49835;BME280;35729;52.090;13.162;2023-03-18T08:17:51;100663.03;;;8.45;58.21
49835;BME280;35729;52.090;13.162;2023-03-18T08:20:20;100668.09;;;8.56;58.34
49835;BME280;35729;52.090;13.162;2023-03-18T08:22:48;100669.72;;;8.65;58.31
49835;BME280;35729;52.090;13.162;2023-03-18T08:25:20;100666.03;;;8.77;58.22
49835;BME280;35729;52.090;13.162;2023-03-18T08:27:49;100660.63;;;8.89;58.07
49835;BME280;35729;52.090;13.162;2023-03-18T08:30:18;100657.88;;;8.99;57.85
49835;BME280;35729;52.090;13.162;2023-03-18T08:32:50;100656.84;;;9.09;57.46
49835;BME280;35729;52.090;13.162;2023-03-18T08:35:20;100657.53;;;9.19;57.75
49835;BME280;35729;52.090;13.162;2023-03-18T08:37:48;100659.94;;;9.29;57.76
49835;BME280;35729;52.090;13.162;2023-03-18T08:40:20;100660.63;;;9.41;57.73
49835;BME280;35729;52.090;13.162;2023-03-18T08:42:48;100663.06;;;9.52;57.34
49835;BME280;35729;52.090;13.162;2023-03-18T08:45:17;100669.75;;;9.67;57.39
49835;BME280;35729;52.090;13.162;2023-03-18T08:47:47;100661.66;;;9.79;57.32
49835;BME280;35729;52.090;13.162;2023-03-18T08:50:15;100664.03;;;9.91;57.17
49835;BME280;35729;52.090;13.162;2023-03-18T08:52:44;100668.16;;;10.03;57.10
49835;BME280;35729;52.090;13.162;2023-03-18T08:55:12;100667.09;;;10.12;57.20
49835;BME280;35729;52.090;13.162;2023-03-18T08:57:43;100670.34;;;10.23;56.86
49835;BME280;35729;52.090;13.162;2023-03-18T09:00:13;100671.94;;;10.31;57.03
49835;BME280;35729;52.090;13.162;2023-03-18T09:02:42;100659.56;;;10.39;57.08
49835;BME280;35729;52.090;13.162;2023-03-18T09:05:10;100670.75;;;10.47;57.07
49835;BME280;35729;52.090;13.162;2023-03-18T09:07:39;100667.97;;;10.53;57.09
49835;BME280;35729;52.090;13.162;2023-03-18T09:10:09;100673.94;;;10.60;57.02
49835;BME280;35729;52.090;13.162;2023-03-18T09:12:39;100679.94;;;10.67;57.02
49835;BME280;35729;52.090;13.162;2023-03-18T09:15:12;100684.16;;;10.72;56.38
49835;BME280;35729;52.090;13.162;2023-03-18T09:17:41;100684.03;;;10.79;56.65
49835;BME280;35729;52.090;13.162;2023-03-18T09:20:12;100697.03;;;10.83;56.55
49835;BME280;35729;52.090;13.162;2023-03-18T09:22:42;100697.75;;;10.90;56.62
49835;BME280;35729;52.090;13.162;2023-03-18T09:25:12;100692.41;;;10.95;56.94
49835;BME280;35729;52.090;13.162;2023-03-18T09:27:41;100687.03;;;10.99;56.55
49835;BME280;35729;52.090;13.162;2023-03-18T09:30:13;100691.28;;;11.05;56.12
49835;BME280;35729;52.090;13.162;2023-03-18T09:32:41;100691.19;;;11.08;56.70
49835;BME280;35729;52.090;13.162;2023-03-18T09:35:10;100685.88;;;11.11;56.56
49835;BME280;35729;52.090;13.162;2023-03-18T09:37:40;100685.72;;;11.17;56.58
49835;BME280;35729;52.090;13.162;2023-03-18T09:40:15;100689.91;;;11.24;55.90
49835;BME280;35729;52.090;13.162;2023-03-18T09:42:54;100691.53;;;11.30;56.51
49835;BME280;35729;52.090;13.162;2023-03-18T09:45:30;100687.84;;;11.36;56.01
49835;BME280;35729;52.090;13.162;2023-03-18T09:48:30;100686.81;;;11.43;55.18
49835;BME280;35729;52.090;13.162;2023-03-18T09:51:08;100694.56;;;11.48;56.07
49835;BME280;35729;52.090;13.162;2023-03-18T09:53:42;100695.25;;;11.54;56.76
49835;BME280;35729;52.090;13.162;2023-03-18T09:56:15;100700.25;;;11.64;56.60
49835;BME280;35729;52.090;13.162;2023-03-18T09:58:48;100699.22;;;11.71;56.38
49835;BME280;35729;52.090;13.162;2023-03-18T10:01:23;100705.03;;;11.82;56.54
49835;BME280;35729;52.090;13.162;2023-03-18T10:03:57;100695.13;;;11.92;55.29
49835;BME280;35729;52.090;13.162;2023-03-18T10:06:27;100692.19;;;12.04;56.36
49835;BME280;35729;52.090;13.162;2023-03-18T10:09:03;100694.50;;;12.15;55.34
49835;BME280;35729;52.090;13.162;2023-03-18T10:11:36;100695.03;;;12.27;56.06
49835;BME280;35729;52.090;13.162;2023-03-18T10:14:17;100696.59;;;12.34;55.39
49835;BME280;35729;52.090;13.162;2023-03-18T10:16:56;100698.03;;;12.44;55.27
49835;BME280;35729;52.090;13.162;2023-03-18T10:19:28;100699.47;;;12.54;55.95
49835;BME280;35729;52.090;13.162;2023-03-18T10:22:06;100704.47;;;12.64;55.16
49835;BME280;35729;52.090;13.162;2023-03-18T10:24:39;100693.66;;;12.73;55.70
49835;BME280;35729;52.090;13.162;2023-03-18T10:27:16;100689.81;;;12.83;55.77
49835;BME280;35729;52.090;13.162;2023-03-18T10:29:50;100687.81;;;12.92;56.09
49835;BME280;35729;52.090;13.162;2023-03-18T10:32:28;100690.13;;;13.01;54.78
49835;BME280;35729;52.090;13.162;2023-03-18T10:35:07;100697.72;;;13.10;55.65
49835;BME280;35729;52.090;13.162;2023-03-18T10:37:49;100693.06;;;13.18;55.41
49835;BME280;35729;52.090;13.162;2023-03-18T10:40:19;100698.06;;;13.26;56.51
49835;BME280;35729;52.090;13.162;2023-03-18T10:42:49;100698.63;;;13.36;56.23
49835;BME280;35729;52.090;13.162;2023-03-18T10:45:22;100688.69;;;13.44;56.14
49835;BME280;35729;52.090;13.162;2023-03-18T10:47:58;100690.97;;;13.55;56.23
49835;BME280;35729;52.090;13.162;2023-03-18T10:50:31;100696.78;;;13.65;56.07
49835;BME280;35729;52.090;13.162;2023-03-18T10:53:06;100695.44;;;13.78;55.31
49835;BME280;35729;52.090;13.162;2023-03-18T10:55:49;100700.09;;;13.95;55.35
49835;BME280;35729;52.090;13.162;2023-03-18T10:58:20;100696.03;;;14.10;55.96
49835;BME280;35729;52.090;13.162;2023-03-18T11:00:48;100699.16;;;14.22;55.94
49835;BME280;35729;52.090;13.162;2023-03-18T11:03:23;100696.06;;;14.32;55.21
49835;BME280;35729;52.090;13.162;2023-03-18T11:05:53;100697.50;;;14.41;55.72
49835;BME280;35729;52.090;13.162;2023-03-18T11:08:29;100691.00;;;14.50;55.02
49835;BME280;35729;52.090;13.162;2023-03-18T11:11:13;100690.59;;;14.61;55.37
49835;BME280;35729;52.090;13.162;2023-03-18T11:13:46;100697.28;;;14.71;54.91
49835;BME280;35729;52.090;13.162;2023-03-18T11:16:26;100684.50;;;14.82;55.14
49835;BME280;35729;52.090;13.162;2023-03-18T11:19:06;100687.59;;;14.92;54.90
49835;BME280;35729;52.090;13.162;2023-03-18T11:21:35;100682.72;;;15.04;55.54
49835;BME280;35729;52.090;13.162;2023-03-18T11:24:07;100681.38;;;15.15;55.43
49835;BME280;35729;52.090;13.162;2023-03-18T11:27:00;100683.44;;;15.29;55.23
49835;BME280;35729;52.090;13.162;2023-03-18T11:29:30;100676.75;;;15.41;55.12
49835;BME280;35729;52.090;13.162;2023-03-18T11:32:01;100678.97;;;15.52;55.19
49835;BME280;35729;52.090;13.162;2023-03-18T11:34:32;100682.97;;;15.61;54.38
49835;BME280;35729;52.090;13.162;2023-03-18T11:37:04;100677.34;;;15.69;54.76
49835;BME280;35729;52.090;13.162;2023-03-18T11:39:35;100677.00;;;15.76;54.75
49835;BME280;35729;52.090;13.162;2023-03-18T11:42:17;100677.41;;;15.88;53.61
49835;BME280;35729;52.090;13.162;2023-03-18T11:44:47;100677.91;;;15.96;54.39
49835;BME280;35729;52.090;13.162;2023-03-18T11:47:26;100669.78;;;16.01;53.46
49835;BME280;35729;52.090;13.162;2023-03-18T11:50:08;100670.34;;;16.07;53.96
49835;BME280;35729;52.090;13.162;2023-03-18T11:52:48;100660.44;;;16.12;54.07
49835;BME280;35729;52.090;13.162;2023-03-18T11:55:29;100674.25;;;16.19;53.55
49835;BME280;35729;52.090;13.162;2023-03-18T12:01:09;100670.03;;;16.34;53.12
49835;BME280;35729;52.090;13.162;2023-03-18T12:04:07;100671.44;;;16.41;53.99
49835;BME280;35729;52.090;13.162;2023-03-18T12:06:53;100659.50;;;16.52;53.81
49835;BME280;35729;52.090;13.162;2023-03-18T12:09:27;100662.47;;;16.63;54.38
49835;BME280;35729;52.090;13.162;2023-03-18T12:12:06;100659.38;;;16.72;53.69
49835;BME280;35729;52.090;13.162;2023-03-18T12:14:46;100664.13;;;16.83;53.84
49835;BME280;35729;52.090;13.162;2023-03-18T12:17:28;100667.34;;;16.90;52.65
49835;BME280;35729;52.090;13.162;2023-03-18T12:20:11;100664.44;;;16.96;51.19
49835;BME280;35729;52.090;13.162;2023-03-18T12:23:00;100671.13;;;17.03;51.38
49835;BME280;35729;52.090;13.162;2023-03-18T12:25:38;100664.59;;;17.10;51.32
49835;BME280;35729;52.090;13.162;2023-03-18T12:28:17;100665.91;;;17.19;51.43
49835;BME280;35729;52.090;13.162;2023-03-18T12:31:09;100659.19;;;17.30;52.43
49835;BME280;35729;52.090;13.162;2023-03-18T12:33:48;100664.66;;;17.44;52.03
49835;BME280;35729;52.090;13.162;2023-03-18T12:36:26;100669.25;;;17.58;51.60
49835;BME280;35729;52.090;13.162;2023-03-18T12:39:26;100666.56;;;17.75;51.02
49835;BME280;35729;52.090;13.162;2023-03-18T12:42:02;100667.53;;;17.90;49.29
49835;BME280;35729;52.090;13.162;2023-03-18T12:44:56;100665.28;;;18.00;48.57
49835;BME280;35729;52.090;13.162;2023-03-18T12:47:31;100657.59;;;18.12;50.15
49835;BME280;35729;52.090;13.162;2023-03-18T12:50:03;100669.84;;;18.30;49.35
49835;BME280;35729;52.090;13.162;2023-03-18T12:52:36;100663.25;;;18.53;50.13
49835;BME280;35729;52.090;13.162;2023-03-18T12:55:14;100647.97;;;18.73;46.95
49835;BME280;35729;52.090;13.162;2023-03-18T12:57:47;100661.84;;;18.94;47.77
49835;BME280;35729;52.090;13.162;2023-03-18T13:00:20;100660.09;;;19.09;46.51
49835;BME280;35729;52.090;13.162;2023-03-18T13:02:56;100666.31;;;19.24;46.77
49835;BME280;35729;52.090;13.162;2023-03-18T13:05:37;100661.97;;;19.37;46.84
49835;BME280;35729;52.090;13.162;2023-03-18T13:08:40;100652.19;;;19.38;46.58
49835;BME280;35729;52.090;13.162;2023-03-18T13:11:28;100651.72;;;19.46;46.11
49835;BME280;35729;52.090;13.162;2023-03-18T13:14:03;100646.03;;;19.52;46.75